createdAt,value
2017-11-30T00:00:24.686Z,98.86
2017-11-30T00:02:52.200Z,98.79
2017-11-30T00:05:19.703Z,98.57
2017-11-30T00:07:47.228Z,98.79
2017-11-30T00:10:14.744Z,98.61
2017-11-30T00:12:42.245Z,97.96
2017-11-30T00:15:09.768Z,97.56
2017-11-30T00:17:37.304Z,97.79
2017-11-30T00:20:04.817Z,97.20
2017-11-30T00:22:32.353Z,98.69
2017-11-30T00:24:59.855Z,99.99
2017-11-30T00:27:27.374Z,100.00
2017-11-30T00:29:54.875Z,100.00
2017-11-30T00:32:22.388Z,100.00
2017-11-30T00:34:49.897Z,100.00
2017-11-30T00:37:17.418Z,100.00
2017-11-30T00:39:44.966Z,100.00
2017-11-30T00:42:24.285Z,100.00
2017-11-30T00:44:51.828Z,100.00
2017-11-30T00:47:19.335Z,100.00
2017-11-30T00:49:46.841Z,100.00
2017-11-30T00:52:14.347Z,100.00
2017-11-30T00:54:42.644Z,99.10
2017-11-30T00:57:10.132Z,97.99
2017-11-30T00:59:37.616Z,96.81
2017-11-30T01:02:05.166Z,97.62
2017-11-30T01:04:32.661Z,98.43
2017-11-30T01:07:00.155Z,99.09
2017-11-30T01:09:27.666Z,98.58
2017-11-30T01:11:55.160Z,96.76
2017-11-30T01:14:22.659Z,96.99
2017-11-30T01:16:50.163Z,96.77
2017-11-30T01:19:17.831Z,95.71
2017-11-30T01:21:45.326Z,94.45
2017-11-30T01:24:12.830Z,94.57
2017-11-30T01:26:40.342Z,95.45
2017-11-30T01:29:07.850Z,96.35
2017-11-30T01:31:35.356Z,96.76
2017-11-30T01:34:02.852Z,96.34
2017-11-30T01:36:30.361Z,95.59
2017-11-30T01:38:57.869Z,96.11
2017-11-30T01:41:25.400Z,94.58
2017-11-30T01:43:52.908Z,96.13
2017-11-30T01:46:20.415Z,97.39
2017-11-30T01:48:47.900Z,97.96
2017-11-30T01:51:15.396Z,97.85
2017-11-30T01:53:42.916Z,98.41
2017-11-30T01:56:11.638Z,99.17
2017-11-30T01:58:39.161Z,99.27
2017-11-30T02:01:06.673Z,98.57
2017-11-30T02:03:34.215Z,97.79
2017-11-30T02:06:01.782Z,96.53
2017-11-30T02:08:29.295Z,95.87
2017-11-30T02:10:56.788Z,95.13
2017-11-30T02:13:24.308Z,95.07
2017-11-30T02:15:51.820Z,96.11
2017-11-30T02:18:19.340Z,97.87
2017-11-30T02:20:46.850Z,98.54
2017-11-30T02:23:14.360Z,98.03
2017-11-30T02:25:41.872Z,97.33
2017-11-30T02:28:09.491Z,96.84
2017-11-30T02:30:37.010Z,96.60
2017-11-30T02:33:04.516Z,97.36
2017-11-30T02:35:32.020Z,97.35
2017-11-30T02:37:59.517Z,96.46
2017-11-30T02:40:27.078Z,97.82
2017-11-30T02:42:54.598Z,97.17
2017-11-30T02:45:22.156Z,97.11
2017-11-30T02:47:49.676Z,97.21
2017-11-30T02:50:17.185Z,96.49
2017-11-30T02:52:44.681Z,96.60
2017-11-30T02:55:12.185Z,97.46
2017-11-30T02:57:39.702Z,97.69
2017-11-30T03:00:07.378Z,97.65
2017-11-30T03:02:34.932Z,97.84
2017-11-30T03:05:02.448Z,96.87
2017-11-30T03:07:32.535Z,95.49
2017-11-30T03:10:03.123Z,95.33
2017-11-30T03:12:34.460Z,95.22
2017-11-30T03:15:04.133Z,95.96
2017-11-30T03:17:34.721Z,96.17
2017-11-30T03:20:05.671Z,96.37
2017-11-30T03:22:33.175Z,96.19
2017-11-30T03:25:02.811Z,95.21
2017-11-30T03:27:34.243Z,95.40
2017-11-30T03:30:05.370Z,96.10
2017-11-30T03:32:38.747Z,96.98
2017-11-30T03:35:10.599Z,96.36
2017-11-30T03:37:39.448Z,95.63
2017-11-30T03:40:11.574Z,96.43
2017-11-30T03:42:42.515Z,95.15
2017-11-30T03:45:10.035Z,94.58
2017-11-30T03:47:37.558Z,96.82
2017-11-30T03:50:05.068Z,95.84
2017-11-30T03:52:32.565Z,95.01
2017-11-30T03:55:00.070Z,95.78
2017-11-30T03:57:27.559Z,96.68
2017-11-30T03:59:55.059Z,97.17
2017-11-30T04:02:22.567Z,98.42
2017-11-30T04:04:50.068Z,98.48
2017-11-30T04:07:17.568Z,98.08
2017-11-30T04:09:45.054Z,97.81
2017-11-30T04:12:12.558Z,97.63
2017-11-30T04:14:40.085Z,98.64
2017-11-30T04:17:07.605Z,98.48
2017-11-30T04:19:35.122Z,97.97
2017-11-30T04:22:02.613Z,97.86
2017-11-30T04:24:30.146Z,97.22
2017-11-30T04:26:57.660Z,96.77
2017-11-30T04:29:25.157Z,95.34
2017-11-30T04:31:52.653Z,95.90
2017-11-30T04:34:20.138Z,95.54
2017-11-30T04:36:47.621Z,94.68
2017-11-30T04:39:15.130Z,94.35
2017-11-30T04:41:42.617Z,94.00
2017-11-30T04:44:10.185Z,92.37
2017-11-30T04:46:37.704Z,91.57
2017-11-30T04:49:05.192Z,92.09
2017-11-30T04:51:32.705Z,92.45
2017-11-30T04:54:00.195Z,92.16
2017-11-30T04:56:27.699Z,92.51
2017-11-30T04:58:55.208Z,92.44
2017-11-30T05:01:22.715Z,91.75
2017-11-30T05:03:50.210Z,92.01
2017-11-30T05:06:18.055Z,91.33
2017-11-30T05:08:45.575Z,91.44
2017-11-30T05:11:13.078Z,91.42
2017-11-30T05:13:40.585Z,90.86
2017-11-30T05:16:08.088Z,91.32
2017-11-30T05:18:35.567Z,91.65
2017-11-30T05:21:03.085Z,91.54
2017-11-30T05:23:30.609Z,90.90
2017-11-30T05:25:58.107Z,91.58
2017-11-30T05:28:25.610Z,92.59
2017-11-30T05:30:53.110Z,93.42
2017-11-30T05:33:20.635Z,93.62
2017-11-30T05:35:48.142Z,93.66
2017-11-30T05:38:15.642Z,94.78
2017-11-30T05:40:43.153Z,93.99
2017-11-30T05:43:10.655Z,93.74
2017-11-30T05:45:38.157Z,93.66
2017-11-30T05:48:05.679Z,94.21
2017-11-30T05:50:33.168Z,93.84
2017-11-30T05:53:00.656Z,94.27
2017-11-30T05:55:28.164Z,94.78
2017-11-30T05:57:55.786Z,94.61
2017-11-30T06:00:25.663Z,94.43
2017-11-30T06:02:53.154Z,95.46
2017-11-30T06:05:20.661Z,95.30
2017-11-30T06:07:48.181Z,95.42
2017-11-30T06:10:15.668Z,95.17
2017-11-30T06:12:43.155Z,94.91
2017-11-30T06:15:10.658Z,95.66
2017-11-30T06:17:38.150Z,95.41
2017-11-30T06:20:05.759Z,95.93
2017-11-30T06:22:33.247Z,95.98
2017-11-30T06:25:00.739Z,96.09
2017-11-30T06:27:28.233Z,95.77
2017-11-30T06:29:55.754Z,95.44
2017-11-30T06:32:23.249Z,96.32
2017-11-30T06:34:50.740Z,96.70
2017-11-30T06:37:18.243Z,96.61
2017-11-30T06:39:45.758Z,96.62
2017-11-30T06:42:13.259Z,96.21
2017-11-30T06:44:40.755Z,96.15
2017-11-30T06:47:08.243Z,95.17
2017-11-30T06:49:35.732Z,95.97
2017-11-30T06:52:03.235Z,96.25
2017-11-30T06:54:30.774Z,95.74
2017-11-30T06:56:58.289Z,96.38
2017-11-30T06:59:25.797Z,96.60
2017-11-30T07:01:53.306Z,96.74
2017-11-30T07:04:20.826Z,96.58
2017-11-30T07:06:48.325Z,95.74
2017-11-30T07:09:15.854Z,96.27
2017-11-30T07:11:43.340Z,96.38
2017-11-30T07:14:10.833Z,96.26
2017-11-30T07:16:38.375Z,96.28
2017-11-30T07:19:05.899Z,95.76
2017-11-30T07:21:33.407Z,95.46
2017-11-30T07:24:01.103Z,95.32
2017-11-30T07:26:28.599Z,95.01
2017-11-30T07:28:56.111Z,94.14
2017-11-30T07:31:23.630Z,94.45
2017-11-30T07:33:51.147Z,94.53
2017-11-30T07:36:19.532Z,94.30
2017-11-30T07:38:47.052Z,94.92
2017-11-30T07:41:14.554Z,94.88
2017-11-30T07:43:42.162Z,94.77
2017-11-30T07:46:09.704Z,94.49
2017-11-30T07:48:37.194Z,94.68
2017-11-30T07:51:04.693Z,94.79
2017-11-30T07:53:32.256Z,94.49
2017-11-30T07:55:59.763Z,92.44
2017-11-30T07:58:27.275Z,92.75
2017-11-30T08:00:54.795Z,94.23
2017-11-30T08:03:22.288Z,93.67
2017-11-30T08:05:49.818Z,92.97
2017-11-30T08:08:17.307Z,93.46
2017-11-30T08:10:44.797Z,94.33
2017-11-30T08:13:12.334Z,92.86
2017-11-30T08:15:39.847Z,92.46
2017-11-30T08:18:07.328Z,92.44
2017-11-30T08:20:34.833Z,92.43
2017-11-30T08:23:02.335Z,94.53
2017-11-30T08:25:29.822Z,93.91
2017-11-30T08:27:57.323Z,93.46
2017-11-30T08:30:24.875Z,95.01
2017-11-30T08:32:52.362Z,94.40
2017-11-30T08:35:19.850Z,93.37
2017-11-30T08:37:47.342Z,92.25
2017-11-30T08:40:14.839Z,92.99
2017-11-30T08:42:42.346Z,93.41
2017-11-30T08:45:09.880Z,91.94
2017-11-30T08:47:37.383Z,92.13
2017-11-30T08:50:04.883Z,92.39
2017-11-30T08:52:32.379Z,91.72
2017-11-30T08:54:59.886Z,92.94
2017-11-30T08:57:27.385Z,91.08
2017-11-30T08:59:54.891Z,92.01
2017-11-30T09:02:22.378Z,93.62
2017-11-30T09:04:49.884Z,93.85
2017-11-30T09:07:17.426Z,92.85
2017-11-30T09:09:44.974Z,92.87
2017-11-30T09:12:12.479Z,92.67
2017-11-30T09:14:39.984Z,90.91
2017-11-30T09:17:07.478Z,90.67
2017-11-30T09:19:34.973Z,90.40
2017-11-30T09:22:02.472Z,89.99
2017-11-30T09:24:29.987Z,89.90
2017-11-30T09:26:57.495Z,89.49
2017-11-30T09:29:25.037Z,88.87
2017-11-30T09:31:52.530Z,88.02
2017-11-30T09:34:20.052Z,87.14
2017-11-30T09:36:47.578Z,86.17
2017-11-30T09:39:15.063Z,87.56
2017-11-30T09:41:42.546Z,87.98
2017-11-30T09:44:10.040Z,87.81
2017-11-30T09:46:37.675Z,87.48
2017-11-30T09:49:05.185Z,87.91
2017-11-30T09:51:32.673Z,86.14
2017-11-30T09:54:00.188Z,87.41
2017-11-30T09:56:27.755Z,86.93
2017-11-30T09:58:55.250Z,87.71
2017-11-30T10:01:22.741Z,88.24
2017-11-30T10:03:50.247Z,87.56
2017-11-30T10:06:17.759Z,88.28
2017-11-30T10:08:45.252Z,87.99
2017-11-30T10:11:12.738Z,89.92
2017-11-30T10:13:40.228Z,89.34
2017-11-30T10:16:07.721Z,87.31
2017-11-30T10:18:35.205Z,87.03
2017-11-30T10:21:02.711Z,85.04
2017-11-30T10:23:30.215Z,86.25
2017-11-30T10:25:57.722Z,85.50
2017-11-30T10:28:25.221Z,85.08
2017-11-30T10:30:52.740Z,86.38
2017-11-30T10:33:20.229Z,86.36
2017-11-30T10:35:47.725Z,83.82
2017-11-30T10:38:15.214Z,85.45
2017-11-30T10:40:42.709Z,88.38
2017-11-30T10:43:10.206Z,90.00
2017-11-30T10:45:37.720Z,86.24
2017-11-30T10:48:05.218Z,87.58
2017-11-30T10:50:32.713Z,87.50
2017-11-30T10:53:00.216Z,88.01
2017-11-30T10:55:27.731Z,88.64
2017-11-30T10:57:55.229Z,86.53
2017-11-30T11:00:22.737Z,90.23
2017-11-30T11:02:50.232Z,86.75
2017-11-30T11:05:17.734Z,88.70
2017-11-30T11:07:45.234Z,86.08
2017-11-30T11:10:12.723Z,85.53
2017-11-30T11:12:40.226Z,86.44
2017-11-30T11:15:07.722Z,84.38
2017-11-30T11:17:35.209Z,89.89
2017-11-30T11:20:02.748Z,91.75
2017-11-30T11:22:30.234Z,92.57
2017-11-30T11:24:57.724Z,91.94
2017-11-30T11:27:25.223Z,92.07
2017-11-30T11:29:52.744Z,92.47
2017-11-30T11:32:20.244Z,92.75
2017-11-30T11:34:47.752Z,91.13
2017-11-30T11:37:15.240Z,90.56
2017-11-30T11:39:42.739Z,89.57
2017-11-30T11:42:10.239Z,90.33
2017-11-30T11:44:37.735Z,90.97
2017-11-30T11:47:05.276Z,91.30
2017-11-30T11:49:32.763Z,90.15
2017-11-30T11:52:00.304Z,90.39
2017-11-30T11:54:27.819Z,90.92
2017-11-30T11:56:55.318Z,90.02
2017-11-30T11:59:22.823Z,92.60
2017-11-30T12:01:50.328Z,91.16
2017-11-30T12:04:17.900Z,91.59
2017-11-30T12:06:45.428Z,90.19
2017-11-30T12:09:12.955Z,89.27
2017-11-30T12:11:40.439Z,88.54
2017-11-30T12:14:07.945Z,88.60
2017-11-30T12:16:35.479Z,91.06
2017-11-30T12:19:02.970Z,90.70
2017-11-30T12:21:30.467Z,90.81
2017-11-30T12:23:57.979Z,91.27
2017-11-30T12:26:25.462Z,89.59
2017-11-30T12:28:53.016Z,88.34
2017-11-30T12:31:20.523Z,87.78
2017-11-30T12:33:48.040Z,86.85
2017-11-30T12:36:15.526Z,88.23
2017-11-30T12:38:43.174Z,87.01
2017-11-30T12:41:10.669Z,87.63
2017-11-30T12:43:38.178Z,86.44
2017-11-30T12:46:05.924Z,86.08
2017-11-30T12:48:33.440Z,85.79
2017-11-30T12:51:02.279Z,86.40
2017-11-30T12:53:29.847Z,86.67
2017-11-30T12:55:58.196Z,84.96
2017-11-30T12:58:25.712Z,86.02
2017-11-30T13:00:53.222Z,85.61
2017-11-30T13:03:20.712Z,87.30
2017-11-30T13:05:48.231Z,85.99
2017-11-30T13:08:15.722Z,84.94
2017-11-30T13:10:43.214Z,85.87
2017-11-30T13:13:10.721Z,85.37
2017-11-30T13:15:38.238Z,84.07
2017-11-30T13:18:05.729Z,82.02
2017-11-30T13:20:33.226Z,84.00
2017-11-30T13:23:00.719Z,84.61
2017-11-30T13:25:28.207Z,81.99
2017-11-30T13:27:55.693Z,84.53
2017-11-30T13:30:23.201Z,83.59
2017-11-30T13:32:50.726Z,84.36
2017-11-30T13:35:18.237Z,82.68
2017-11-30T13:37:45.753Z,83.83
2017-11-30T13:40:13.274Z,83.39
2017-11-30T13:42:40.775Z,83.81
2017-11-30T13:45:08.295Z,85.43
2017-11-30T13:47:35.797Z,83.97
2017-11-30T13:50:03.291Z,84.32
2017-11-30T13:52:30.780Z,84.34
2017-11-30T13:54:58.266Z,83.45
2017-11-30T13:57:25.766Z,83.36
2017-11-30T13:59:53.289Z,83.44
2017-11-30T14:02:20.795Z,84.32
2017-11-30T14:04:48.289Z,84.61
2017-11-30T14:07:15.821Z,83.00
2017-11-30T14:09:43.321Z,82.60
2017-11-30T14:12:10.829Z,82.79
2017-11-30T14:14:38.318Z,83.62
2017-11-30T14:17:05.827Z,84.72
2017-11-30T14:19:33.331Z,84.13
2017-11-30T14:22:00.829Z,84.57
2017-11-30T14:24:28.316Z,85.14
2017-11-30T14:26:55.833Z,84.14
2017-11-30T14:29:23.321Z,84.10
2017-11-30T14:31:50.828Z,84.53
2017-11-30T14:34:18.361Z,84.96
2017-11-30T14:36:45.874Z,86.11
2017-11-30T14:39:13.381Z,86.14
2017-11-30T14:41:40.894Z,86.11
2017-11-30T14:44:08.404Z,86.54
2017-11-30T14:46:35.913Z,87.75
2017-11-30T14:49:03.401Z,86.86
2017-11-30T14:51:30.925Z,86.93
2017-11-30T14:53:58.413Z,86.73
2017-11-30T14:56:25.895Z,87.53
2017-11-30T14:58:53.437Z,87.60
2017-11-30T15:01:20.933Z,87.92
2017-11-30T15:03:48.442Z,89.05
2017-11-30T15:06:15.939Z,88.60
2017-11-30T15:09:14.381Z,91.11
2017-11-30T15:11:41.871Z,90.74
2017-11-30T15:14:09.351Z,92.66
2017-11-30T15:16:36.833Z,93.00
2017-11-30T15:19:04.326Z,92.77
2017-11-30T15:21:31.846Z,93.88
2017-11-30T15:23:59.434Z,94.33
2017-11-30T15:26:26.956Z,95.41
2017-11-30T15:28:54.482Z,96.59
2017-11-30T15:31:21.970Z,96.05
2017-11-30T15:33:49.457Z,93.63
2017-11-30T15:36:17.203Z,93.26
2017-11-30T15:38:44.751Z,91.47
2017-11-30T15:41:12.236Z,90.94
2017-11-30T15:43:39.733Z,89.24
2017-11-30T15:46:07.241Z,91.62
2017-11-30T15:48:34.784Z,91.69
2017-11-30T15:51:02.268Z,88.52
2017-11-30T15:53:29.774Z,88.35
2017-11-30T15:55:57.270Z,87.81
2017-11-30T15:58:24.781Z,88.37
2017-11-30T16:00:52.265Z,92.22
2017-11-30T16:03:19.789Z,94.12
2017-11-30T16:05:47.292Z,91.28
2017-11-30T16:08:14.807Z,90.34
2017-11-30T16:10:42.361Z,88.76
2017-11-30T16:13:09.882Z,88.22
2017-11-30T16:15:37.444Z,87.34
2017-11-30T16:18:04.944Z,88.43
2017-11-30T16:20:32.510Z,88.61
2017-11-30T16:23:00.018Z,89.73
2017-11-30T16:25:27.523Z,87.30
2017-11-30T16:27:55.006Z,86.18
2017-11-30T16:30:22.548Z,87.10
2017-11-30T16:32:50.041Z,86.40
2017-11-30T16:35:17.538Z,84.31
2017-11-30T16:37:45.057Z,85.15
2017-11-30T16:40:12.709Z,85.18
2017-11-30T16:42:40.274Z,84.82
2017-11-30T16:45:07.781Z,84.75
2017-11-30T16:47:35.276Z,83.14
2017-11-30T16:50:02.763Z,84.50
2017-11-30T16:52:30.285Z,84.47
2017-11-30T16:54:57.799Z,83.76
2017-11-30T16:57:25.385Z,83.73
2017-11-30T16:59:52.908Z,85.24
2017-11-30T17:02:20.408Z,86.44
2017-11-30T17:04:47.913Z,88.06
2017-11-30T17:07:15.426Z,88.75
2017-11-30T17:09:42.948Z,88.41
2017-11-30T17:12:10.432Z,90.56
2017-11-30T17:14:37.926Z,90.35
2017-11-30T17:17:05.432Z,91.41
2017-11-30T17:19:32.922Z,92.04
2017-11-30T17:22:00.437Z,93.66
2017-11-30T17:24:27.948Z,92.85
2017-11-30T17:26:55.464Z,93.27
2017-11-30T17:29:22.979Z,93.31
2017-11-30T17:31:50.495Z,92.24
2017-11-30T17:34:17.982Z,92.78
2017-11-30T17:36:45.512Z,91.81
2017-11-30T17:39:13.017Z,93.15
2017-11-30T17:41:40.501Z,92.27
2017-11-30T17:44:07.992Z,93.04
2017-11-30T17:46:35.504Z,93.18
2017-11-30T17:49:03.050Z,93.08
2017-11-30T17:51:30.600Z,93.65
2017-11-30T17:53:58.106Z,94.39
2017-11-30T17:56:25.725Z,95.29
2017-11-30T17:58:53.339Z,94.96
2017-11-30T18:01:20.847Z,94.72
2017-11-30T18:03:48.340Z,93.65
2017-11-30T18:06:15.831Z,93.65
2017-11-30T18:08:43.329Z,93.57
2017-11-30T18:11:10.875Z,92.22
2017-11-30T18:13:40.773Z,93.21
2017-11-30T18:16:08.298Z,93.20
2017-11-30T18:18:35.799Z,92.67
2017-11-30T18:21:03.318Z,93.86
2017-11-30T18:23:30.835Z,94.05
2017-11-30T18:25:58.332Z,96.30
2017-11-30T18:28:25.874Z,97.17
2017-11-30T18:30:53.395Z,95.61
2017-11-30T18:33:20.948Z,94.98
2017-11-30T18:35:48.426Z,96.57
2017-11-30T18:38:15.937Z,95.08
2017-11-30T18:40:43.445Z,94.03
2017-11-30T18:43:10.953Z,93.76
2017-11-30T18:45:38.456Z,95.47
2017-11-30T18:48:05.973Z,96.29
2017-11-30T18:50:33.480Z,97.13
2017-11-30T18:53:01.478Z,96.85
2017-11-30T18:55:28.997Z,96.45
2017-11-30T18:57:56.493Z,96.01
2017-11-30T19:00:24.016Z,96.65
2017-11-30T19:02:51.537Z,96.48
2017-11-30T19:05:19.024Z,97.11
2017-11-30T19:07:46.529Z,96.98
2017-11-30T19:10:14.049Z,96.17
2017-11-30T19:12:41.568Z,96.59
2017-11-30T19:15:09.067Z,97.18
2017-11-30T19:17:36.593Z,97.88
2017-11-30T19:20:04.558Z,97.74
2017-11-30T19:22:32.078Z,97.28
2017-11-30T19:24:59.569Z,97.31
2017-11-30T19:27:27.111Z,96.57
2017-11-30T19:29:54.605Z,96.08
2017-11-30T19:32:23.095Z,96.40
2017-11-30T19:34:50.619Z,96.68
2017-11-30T19:37:18.165Z,96.57
2017-11-30T19:39:45.689Z,96.72
2017-11-30T19:42:13.210Z,97.30
2017-11-30T19:44:40.715Z,98.11
2017-11-30T19:47:08.341Z,98.19
2017-11-30T19:49:35.896Z,97.56
2017-11-30T19:52:03.388Z,97.57
2017-11-30T19:54:30.892Z,96.84
2017-11-30T19:56:58.398Z,96.67
2017-11-30T19:59:25.909Z,96.49
2017-11-30T20:01:53.443Z,98.06
2017-11-30T20:04:20.966Z,98.54
2017-11-30T20:06:48.623Z,98.32
2017-11-30T20:09:16.114Z,97.56
2017-11-30T20:11:43.632Z,98.68
2017-11-30T20:14:11.246Z,98.90
2017-11-30T20:16:38.749Z,99.40
2017-11-30T20:19:06.255Z,99.64
2017-11-30T20:21:33.755Z,99.31
2017-11-30T20:24:01.295Z,98.96
2017-11-30T20:26:28.808Z,98.11
2017-11-30T20:28:56.293Z,98.00
2017-11-30T20:31:23.908Z,97.99
2017-11-30T20:33:51.394Z,98.32
2017-11-30T20:36:18.933Z,97.97
2017-11-30T20:38:46.430Z,97.01
2017-11-30T20:41:13.954Z,96.85
2017-11-30T20:43:41.470Z,97.57
2017-11-30T20:46:09.028Z,97.69
2017-11-30T20:48:36.553Z,98.46
2017-11-30T20:51:04.162Z,98.43
2017-11-30T20:53:31.689Z,98.43
2017-11-30T20:55:59.201Z,97.84
2017-11-30T20:58:26.720Z,97.57
2017-11-30T21:00:54.251Z,96.72
2017-11-30T21:03:21.745Z,96.58
2017-11-30T21:05:49.248Z,96.78
2017-11-30T21:08:16.754Z,97.51
2017-11-30T21:10:44.333Z,98.33
2017-11-30T21:13:11.804Z,99.07
2017-11-30T21:15:39.304Z,99.64
2017-11-30T21:18:06.814Z,99.75
2017-11-30T21:20:34.327Z,99.92
2017-11-30T21:23:01.870Z,99.65
2017-11-30T21:25:29.369Z,99.74
2017-11-30T21:27:56.908Z,100.00
2017-11-30T21:30:24.502Z,100.00
2017-11-30T21:32:52.009Z,99.96
2017-11-30T21:35:19.545Z,99.83
2017-11-30T21:37:47.071Z,99.52
2017-11-30T21:40:14.629Z,99.46
2017-11-30T21:42:42.195Z,99.98
2017-11-30T21:45:09.758Z,100.00
2017-11-30T21:47:37.306Z,99.84
2017-11-30T21:50:04.840Z,99.56
2017-11-30T21:52:32.355Z,99.03
2017-11-30T21:54:59.851Z,99.67
2017-11-30T21:57:27.362Z,99.90
2017-11-30T21:59:54.912Z,100.00
2017-11-30T22:02:22.447Z,99.68
2017-11-30T22:04:49.955Z,99.24
2017-11-30T22:07:17.463Z,99.09
2017-11-30T22:09:44.957Z,99.34
2017-11-30T22:12:12.483Z,99.69
2017-11-30T22:14:40.030Z,100.00
2017-11-30T22:17:07.552Z,100.00
2017-11-30T22:19:35.075Z,100.00
2017-11-30T22:22:02.623Z,100.00
2017-11-30T22:24:30.246Z,100.00
2017-11-30T22:26:59.266Z,99.53
2017-11-30T22:29:26.844Z,98.80
2017-11-30T22:31:54.371Z,98.49
2017-11-30T22:34:21.920Z,99.35
2017-11-30T22:36:49.469Z,99.73
2017-11-30T22:39:16.979Z,99.18
2017-11-30T22:41:44.516Z,97.56
2017-11-30T22:44:12.009Z,97.81
2017-11-30T22:46:39.530Z,98.31
2017-11-30T22:49:07.039Z,98.10
2017-11-30T22:51:34.549Z,97.71
2017-11-30T22:54:02.111Z,97.33
2017-11-30T22:56:29.605Z,97.26
2017-11-30T22:58:57.101Z,97.77
2017-11-30T23:01:24.631Z,98.33
2017-11-30T23:03:52.117Z,98.90
2017-11-30T23:06:19.615Z,99.17
2017-11-30T23:08:47.110Z,99.10
2017-11-30T23:11:14.626Z,97.97
2017-11-30T23:13:42.116Z,98.33
2017-11-30T23:16:09.675Z,97.78
2017-11-30T23:18:37.211Z,97.36
2017-11-30T23:21:04.715Z,98.16
2017-11-30T23:23:32.207Z,98.07
2017-11-30T23:25:59.704Z,97.80
2017-11-30T23:28:27.216Z,97.75
2017-11-30T23:30:54.721Z,97.28
2017-11-30T23:33:22.228Z,98.44
2017-11-30T23:35:49.731Z,97.61
2017-11-30T23:38:17.217Z,97.69
2017-11-30T23:40:44.710Z,98.61
2017-11-30T23:43:12.223Z,99.37
2017-11-30T23:45:39.923Z,99.81
2017-11-30T23:48:07.430Z,99.94
2017-11-30T23:50:34.933Z,99.81
2017-11-30T23:53:02.430Z,98.89
2017-11-30T23:55:29.955Z,97.91
2017-11-30T23:57:57.447Z,97.55
